sensor_id;sensor_type;location;lat;lon;timestamp;P1;durP1;ratioP1;P2;durP2;ratioP2
39518;SDS011;25200;53.394;10.414;2023-03-19T00:00:03;7.70;;;4.63;;
39518;SDS011;25200;53.394;10.414;2023-03-19T00:02:32;9.25;;;4.68;;
39518;SDS011;25200;53.394;10.414;2023-03-19T00:04:58;7.18;;;4.13;;
39518;SDS011;25200;53.394;10.414;2023-03-19T00:07:24;10.38;;;4.55;;
39518;SDS011;25200;53.394;10.414;2023-03-19T00:09:50;7.80;;;4.75;;
39518;SDS011;25200;53.394;10.414;2023-03-19T00:12:15;6.57;;;3.83;;
39518;SDS011;25200;53.394;10.414;2023-03-19T00:14:41;8.43;;;3.97;;
39518;SDS011;25200;53.394;10.414;2023-03-19T00:17:07;6.47;;;3.67;;
39518;SDS011;25200;53.394;10.414;2023-03-19T00:19:33;6.72;;;3.90;;
39518;SDS011;25200;53.394;10.414;2023-03-19T00:21:59;6.18;;;3.30;;
39518;SDS011;25200;53.394;10.414;2023-03-19T00:24:24;5.63;;;3.20;;
39518;SDS011;25200;53.394;10.414;2023-03-19T00:26:50;8.23;;;3.60;;
39518;SDS011;25200;53.394;10.414;2023-03-19T00:29:16;5.72;;;3.00;;
39518;SDS011;25200;53.394;10.414;2023-03-19T00:31:41;4.65;;;2.80;;
39518;SDS011;25200;53.394;10.414;2023-03-19T00:34:07;6.60;;;3.08;;
39518;SDS011;25200;53.394;10.414;2023-03-19T00:36:33;5.85;;;3.38;;
39518;SDS011;25200;53.394;10.414;2023-03-19T00:39:00;6.10;;;3.38;;
39518;SDS011;25200;53.394;10.414;2023-03-19T00:41:26;6.75;;;3.45;;
39518;SDS011;25200;53.394;10.414;2023-03-19T00:43:53;6.90;;;3.83;;
39518;SDS011;25200;53.394;10.414;2023-03-19T00:46:20;7.65;;;3.97;;
39518;SDS011;25200;53.394;10.414;2023-03-19T00:48:45;11.00;;;4.30;;
39518;SDS011;25200;53.394;10.414;2023-03-19T00:51:11;7.72;;;4.30;;
39518;SDS011;25200;53.394;10.414;2023-03-19T00:53:37;7.63;;;4.00;;
39518;SDS011;25200;53.394;10.414;2023-03-19T00:56:04;6.93;;;3.42;;
39518;SDS011;25200;53.394;10.414;2023-03-19T00:58:31;7.30;;;4.25;;
39518;SDS011;25200;53.394;10.414;2023-03-19T01:00:57;7.28;;;3.67;;
39518;SDS011;25200;53.394;10.414;2023-03-19T01:03:23;6.95;;;3.92;;
39518;SDS011;25200;53.394;10.414;2023-03-19T01:05:48;6.53;;;3.67;;
39518;SDS011;25200;53.394;10.414;2023-03-19T01:08:15;7.00;;;3.90;;
39518;SDS011;25200;53.394;10.414;2023-03-19T01:10:41;8.27;;;3.90;;
39518;SDS011;25200;53.394;10.414;2023-03-19T01:13:07;7.95;;;4.50;;
39518;SDS011;25200;53.394;10.414;2023-03-19T01:15:40;7.05;;;3.78;;
39518;SDS011;25200;53.394;10.414;2023-03-19T01:18:07;6.00;;;3.30;;
39518;SDS011;25200;53.394;10.414;2023-03-19T01:20:34;7.32;;;3.30;;
39518;SDS011;25200;53.394;10.414;2023-03-19T01:23:02;7.43;;;3.90;;
39518;SDS011;25200;53.394;10.414;2023-03-19T01:25:28;5.75;;;3.20;;
39518;SDS011;25200;53.394;10.414;2023-03-19T01:27:54;7.13;;;3.25;;
39518;SDS011;25200;53.394;10.414;2023-03-19T01:30:20;7.90;;;4.20;;
39518;SDS011;25200;53.394;10.414;2023-03-19T01:32:46;8.27;;;4.50;;
39518;SDS011;25200;53.394;10.414;2023-03-19T01:35:14;9.52;;;4.93;;
39518;SDS011;25200;53.394;10.414;2023-03-19T01:37:40;7.95;;;4.82;;
39518;SDS011;25200;53.394;10.414;2023-03-19T01:40:07;8.73;;;5.40;;
39518;SDS011;25200;53.394;10.414;2023-03-19T01:42:49;9.20;;;5.13;;
39518;SDS011;25200;53.394;10.414;2023-03-19T01:45:28;8.93;;;5.13;;
39518;SDS011;25200;53.394;10.414;2023-03-19T01:47:58;8.85;;;5.15;;
39518;SDS011;25200;53.394;10.414;2023-03-19T01:50:26;7.30;;;4.50;;
39518;SDS011;25200;53.394;10.414;2023-03-19T01:52:58;7.85;;;5.00;;
39518;SDS011;25200;53.394;10.414;2023-03-19T01:55:25;8.32;;;5.00;;
39518;SDS011;25200;53.394;10.414;2023-03-19T01:57:51;8.18;;;5.00;;
39518;SDS011;25200;53.394;10.414;2023-03-19T02:00:17;9.25;;;5.45;;
39518;SDS011;25200;53.394;10.414;2023-03-19T02:02:43;8.80;;;5.30;;
39518;SDS011;25200;53.394;10.414;2023-03-19T02:05:13;8.48;;;4.78;;
39518;SDS011;25200;53.394;10.414;2023-03-19T02:07:42;7.40;;;4.50;;
39518;SDS011;25200;53.394;10.414;2023-03-19T02:10:10;7.75;;;4.70;;
39518;SDS011;25200;53.394;10.414;2023-03-19T02:12:37;8.77;;;5.05;;
39518;SDS011;25200;53.394;10.414;2023-03-19T02:15:03;7.05;;;4.75;;
39518;SDS011;25200;53.394;10.414;2023-03-19T02:17:30;8.70;;;4.50;;
39518;SDS011;25200;53.394;10.414;2023-03-19T02:22:38;7.68;;;5.00;;
39518;SDS011;25200;53.394;10.414;2023-03-19T02:25:12;8.82;;;5.30;;
39518;SDS011;25200;53.394;10.414;2023-03-19T02:28:08;10.65;;;5.22;;
39518;SDS011;25200;53.394;10.414;2023-03-19T02:30:35;7.85;;;4.60;;
39518;SDS011;25200;53.394;10.414;2023-03-19T02:33:01;9.35;;;5.22;;
39518;SDS011;25200;53.394;10.414;2023-03-19T02:35:28;10.48;;;5.60;;
39518;SDS011;25200;53.394;10.414;2023-03-19T02:37:57;10.25;;;5.40;;
39518;SDS011;25200;53.394;10.414;2023-03-19T02:40:28;10.15;;;5.70;;
39518;SDS011;25200;53.394;10.414;2023-03-19T02:42:58;7.68;;;5.00;;
39518;SDS011;25200;53.394;10.414;2023-03-19T02:45:28;8.98;;;5.18;;
39518;SDS011;25200;53.394;10.414;2023-03-19T02:47:55;8.18;;;4.75;;
39518;SDS011;25200;53.394;10.414;2023-03-19T02:50:21;11.93;;;6.03;;
39518;SDS011;25200;53.394;10.414;2023-03-19T02:52:47;8.75;;;5.15;;
39518;SDS011;25200;53.394;10.414;2023-03-19T02:55:12;10.25;;;5.15;;
39518;SDS011;25200;53.394;10.414;2023-03-19T02:57:38;9.18;;;6.40;;
39518;SDS011;25200;53.394;10.414;2023-03-19T03:00:04;11.43;;;5.93;;
39518;SDS011;25200;53.394;10.414;2023-03-19T03:02:31;9.85;;;5.25;;
39518;SDS011;25200;53.394;10.414;2023-03-19T03:04:57;8.95;;;5.47;;
39518;SDS011;25200;53.394;10.414;2023-03-19T03:07:23;9.90;;;5.80;;
39518;SDS011;25200;53.394;10.414;2023-03-19T03:09:48;8.35;;;5.10;;
39518;SDS011;25200;53.394;10.414;2023-03-19T03:12:14;9.82;;;5.78;;
39518;SDS011;25200;53.394;10.414;2023-03-19T03:14:40;8.85;;;5.57;;
39518;SDS011;25200;53.394;10.414;2023-03-19T03:17:06;11.05;;;6.10;;
39518;SDS011;25200;53.394;10.414;2023-03-19T03:19:32;11.38;;;6.43;;
39518;SDS011;25200;53.394;10.414;2023-03-19T03:21:58;13.20;;;6.78;;
39518;SDS011;25200;53.394;10.414;2023-03-19T03:24:25;15.25;;;7.03;;
39518;SDS011;25200;53.394;10.414;2023-03-19T03:26:51;12.13;;;6.95;;
39518;SDS011;25200;53.394;10.414;2023-03-19T03:29:16;11.70;;;6.95;;
39518;SDS011;25200;53.394;10.414;2023-03-19T03:31:42;9.98;;;5.97;;
39518;SDS011;25200;53.394;10.414;2023-03-19T03:34:08;10.88;;;6.82;;
39518;SDS011;25200;53.394;10.414;2023-03-19T03:36:34;10.38;;;6.82;;
39518;SDS011;25200;53.394;10.414;2023-03-19T03:39:00;11.43;;;6.43;;
39518;SDS011;25200;53.394;10.414;2023-03-19T03:41:26;10.05;;;6.15;;
39518;SDS011;25200;53.394;10.414;2023-03-19T03:43:52;9.70;;;6.10;;
39518;SDS011;25200;53.394;10.414;2023-03-19T03:46:17;11.70;;;6.47;;
39518;SDS011;25200;53.394;10.414;2023-03-19T03:48:43;10.35;;;6.53;;
39518;SDS011;25200;53.394;10.414;2023-03-19T03:51:09;8.93;;;5.55;;
39518;SDS011;25200;53.394;10.414;2023-03-19T03:53:35;11.10;;;6.10;;
39518;SDS011;25200;53.394;10.414;2023-03-19T03:56:01;9.07;;;6.10;;
39518;SDS011;25200;53.394;10.414;2023-03-19T03:58:27;10.43;;;6.63;;
39518;SDS011;25200;53.394;10.414;2023-03-19T04:00:53;10.07;;;5.68;;
39518;SDS011;25200;53.394;10.414;2023-03-19T04:03:19;9.77;;;6.03;;
39518;SDS011;25200;53.394;10.414;2023-03-19T04:05:45;7.82;;;5.22;;
39518;SDS011;25200;53.394;10.414;2023-03-19T04:08:11;9.80;;;5.70;;
39518;SDS011;25200;53.394;10.414;2023-03-19T04:10:40;9.85;;;5.25;;
39518;SDS011;25200;53.394;10.414;2023-03-19T04:13:07;9.15;;;5.38;;
39518;SDS011;25200;53.394;10.414;2023-03-19T04:15:33;8.70;;;5.50;;
39518;SDS011;25200;53.394;10.414;2023-03-19T04:17:59;10.65;;;5.82;;
39518;SDS011;25200;53.394;10.414;2023-03-19T04:20:25;11.30;;;6.22;;
39518;SDS011;25200;53.394;10.414;2023-03-19T04:22:51;9.02;;;6.20;;
39518;SDS011;25200;53.394;10.414;2023-03-19T04:25:17;10.88;;;7.13;;
39518;SDS011;25200;53.394;10.414;2023-03-19T04:27:43;10.43;;;6.15;;
39518;SDS011;25200;53.394;10.414;2023-03-19T04:30:09;9.80;;;6.05;;
39518;SDS011;25200;53.394;10.414;2023-03-19T04:32:36;10.13;;;5.65;;
39518;SDS011;25200;53.394;10.414;2023-03-19T04:35:02;8.85;;;5.82;;
39518;SDS011;25200;53.394;10.414;2023-03-19T04:37:28;11.48;;;6.05;;
39518;SDS011;25200;53.394;10.414;2023-03-19T04:39:54;10.80;;;6.50;;
39518;SDS011;25200;53.394;10.414;2023-03-19T04:42:20;12.10;;;6.85;;
39518;SDS011;25200;53.394;10.414;2023-03-19T04:44:46;14.35;;;7.38;;
39518;SDS011;25200;53.394;10.414;2023-03-19T04:47:12;12.80;;;6.63;;
39518;SDS011;25200;53.394;10.414;2023-03-19T04:49:38;11.07;;;6.25;;
39518;SDS011;25200;53.394;10.414;2023-03-19T04:52:03;11.70;;;6.93;;
39518;SDS011;25200;53.394;10.414;2023-03-19T04:54:30;10.68;;;6.43;;
39518;SDS011;25200;53.394;10.414;2023-03-19T04:56:56;11.43;;;5.20;;
39518;SDS011;25200;53.394;10.414;2023-03-19T04:59:21;10.05;;;6.35;;
39518;SDS011;25200;53.394;10.414;2023-03-19T05:01:47;9.57;;;5.53;;
39518;SDS011;25200;53.394;10.414;2023-03-19T05:04:13;11.48;;;6.10;;
39518;SDS011;25200;53.394;10.414;2023-03-19T05:06:38;9.68;;;5.78;;
39518;SDS011;25200;53.394;10.414;2023-03-19T05:09:04;12.80;;;7.00;;
39518;SDS011;25200;53.394;10.414;2023-03-19T05:11:30;12.98;;;8.45;;
39518;SDS011;25200;53.394;10.414;2023-03-19T05:13:56;13.10;;;8.20;;
39518;SDS011;25200;53.394;10.414;2023-03-19T05:16:22;13.70;;;7.30;;
39518;SDS011;25200;53.394;10.414;2023-03-19T05:18:47;10.65;;;6.53;;
39518;SDS011;25200;53.394;10.414;2023-03-19T05:21:13;11.85;;;6.22;;
39518;SDS011;25200;53.394;10.414;2023-03-19T05:23:40;13.52;;;7.18;;
39518;SDS011;25200;53.394;10.414;2023-03-19T05:26:06;10.95;;;7.43;;
39518;SDS011;25200;53.394;10.414;2023-03-19T05:28:32;12.35;;;7.15;;
39518;SDS011;25200;53.394;10.414;2023-03-19T05:30:58;11.50;;;6.53;;
39518;SDS011;25200;53.394;10.414;2023-03-19T05:33:24;10.50;;;6.55;;
39518;SDS011;25200;53.394;10.414;2023-03-19T05:35:50;11.07;;;6.97;;
39518;SDS011;25200;53.394;10.414;2023-03-19T05:38:17;8.90;;;5.65;;
39518;SDS011;25200;53.394;10.414;2023-03-19T05:40:43;12.70;;;5.95;;
39518;SDS011;25200;53.394;10.414;2023-03-19T05:43:09;9.70;;;5.90;;
39518;SDS011;25200;53.394;10.414;2023-03-19T05:45:35;9.27;;;5.55;;
39518;SDS011;25200;53.394;10.414;2023-03-19T05:48:02;14.55;;;6.88;;
39518;SDS011;25200;53.394;10.414;2023-03-19T05:50:28;13.57;;;7.80;;
39518;SDS011;25200;53.394;10.414;2023-03-19T05:52:55;12.55;;;8.55;;
39518;SDS011;25200;53.394;10.414;2023-03-19T05:55:21;12.23;;;7.95;;
39518;SDS011;25200;53.394;10.414;2023-03-19T05:57:47;11.40;;;7.45;;
39518;SDS011;25200;53.394;10.414;2023-03-19T06:00:13;12.02;;;7.97;;
39518;SDS011;25200;53.394;10.414;2023-03-19T06:02:40;12.13;;;6.90;;
39518;SDS011;25200;53.394;10.414;2023-03-19T06:05:07;12.90;;;8.30;;
39518;SDS011;25200;53.394;10.414;2023-03-19T06:07:33;15.35;;;8.48;;
39518;SDS011;25200;53.394;10.414;2023-03-19T06:09:59;14.35;;;9.20;;
39518;SDS011;25200;53.394;10.414;2023-03-19T06:12:25;15.32;;;8.88;;
39518;SDS011;25200;53.394;10.414;2023-03-19T06:14:51;12.35;;;8.20;;
39518;SDS011;25200;53.394;10.414;2023-03-19T06:17:16;15.18;;;8.18;;
39518;SDS011;25200;53.394;10.414;2023-03-19T06:19:42;14.57;;;8.63;;
39518;SDS011;25200;53.394;10.414;2023-03-19T06:22:08;13.68;;;7.80;;
39518;SDS011;25200;53.394;10.414;2023-03-19T06:24:33;10.32;;;6.85;;
39518;SDS011;25200;53.394;10.414;2023-03-19T06:26:59;15.45;;;8.75;;
39518;SDS011;25200;53.394;10.414;2023-03-19T06:29:25;14.80;;;8.60;;
39518;SDS011;25200;53.394;10.414;2023-03-19T06:31:51;16.13;;;8.60;;
39518;SDS011;25200;53.394;10.414;2023-03-19T06:34:17;16.00;;;9.95;;
39518;SDS011;25200;53.394;10.414;2023-03-19T06:36:42;17.77;;;9.30;;
39518;SDS011;25200;53.394;10.414;2023-03-19T06:39:08;14.90;;;9.43;;
39518;SDS011;25200;53.394;10.414;2023-03-19T06:41:35;15.25;;;9.57;;
39518;SDS011;25200;53.394;10.414;2023-03-19T06:44:01;16.15;;;10.40;;
39518;SDS011;25200;53.394;10.414;2023-03-19T06:46:27;13.40;;;8.15;;
39518;SDS011;25200;53.394;10.414;2023-03-19T06:48:52;15.68;;;9.93;;
39518;SDS011;25200;53.394;10.414;2023-03-19T06:51:19;14.77;;;9.75;;
39518;SDS011;25200;53.394;10.414;2023-03-19T06:53:44;15.40;;;10.07;;
39518;SDS011;25200;53.394;10.414;2023-03-19T06:56:10;19.73;;;10.13;;
39518;SDS011;25200;53.394;10.414;2023-03-19T06:58:36;15.57;;;8.95;;
39518;SDS011;25200;53.394;10.414;2023-03-19T07:01:02;18.70;;;11.98;;
39518;SDS011;25200;53.394;10.414;2023-03-19T07:03:28;20.17;;;11.27;;
39518;SDS011;25200;53.394;10.414;2023-03-19T07:05:54;19.30;;;10.80;;
39518;SDS011;25200;53.394;10.414;2023-03-19T07:08:19;20.75;;;12.10;;
39518;SDS011;25200;53.394;10.414;2023-03-19T07:10:45;14.13;;;9.75;;
39518;SDS011;25200;53.394;10.414;2023-03-19T07:13:11;18.83;;;11.25;;
39518;SDS011;25200;53.394;10.414;2023-03-19T07:15:37;19.45;;;12.70;;
39518;SDS011;25200;53.394;10.414;2023-03-19T07:18:02;18.50;;;12.23;;
39518;SDS011;25200;53.394;10.414;2023-03-19T07:20:28;19.45;;;12.75;;
39518;SDS011;25200;53.394;10.414;2023-03-19T07:22:54;24.67;;;13.57;;
39518;SDS011;25200;53.394;10.414;2023-03-19T07:25:20;21.40;;;12.75;;
39518;SDS011;25200;53.394;10.414;2023-03-19T07:27:45;24.98;;;12.80;;
39518;SDS011;25200;53.394;10.414;2023-03-19T07:30:11;25.15;;;13.15;;
39518;SDS011;25200;53.394;10.414;2023-03-19T07:32:38;21.98;;;13.32;;
39518;SDS011;25200;53.394;10.414;2023-03-19T07:35:05;22.65;;;13.25;;
39518;SDS011;25200;53.394;10.414;2023-03-19T07:37:31;27.50;;;14.45;;
39518;SDS011;25200;53.394;10.414;2023-03-19T07:39:57;23.83;;;13.98;;
39518;SDS011;25200;53.394;10.414;2023-03-19T07:42:22;27.05;;;14.23;;
39518;SDS011;25200;53.394;10.414;2023-03-19T07:44:48;23.52;;;14.05;;
39518;SDS011;25200;53.394;10.414;2023-03-19T07:47:14;26.70;;;14.77;;
39518;SDS011;25200;53.394;10.414;2023-03-19T07:49:40;23.70;;;14.07;;
39518;SDS011;25200;53.394;10.414;2023-03-19T07:52:05;24.35;;;13.75;;
39518;SDS011;25200;53.394;10.414;2023-03-19T07:54:31;23.83;;;14.95;;
39518;SDS011;25200;53.394;10.414;2023-03-19T07:56:57;25.17;;;14.75;;
39518;SDS011;25200;53.394;10.414;2023-03-19T07:59:23;22.23;;;13.75;;
39518;SDS011;25200;53.394;10.414;2023-03-19T08:01:49;25.83;;;13.98;;
39518;SDS011;25200;53.394;10.414;2023-03-19T08:04:14;21.05;;;12.85;;
39518;SDS011;25200;53.394;10.414;2023-03-19T08:06:40;23.83;;;14.23;;
39518;SDS011;25200;53.394;10.414;2023-03-19T08:09:06;24.23;;;14.15;;
39518;SDS011;25200;53.394;10.414;2023-03-19T08:11:32;23.67;;;13.98;;
39518;SDS011;25200;53.394;10.414;2023-03-19T08:13:57;25.05;;;14.50;;
39518;SDS011;25200;53.394;10.414;2023-03-19T08:16:23;26.98;;;14.55;;
39518;SDS011;25200;53.394;10.414;2023-03-19T08:18:49;22.92;;;13.48;;
39518;SDS011;25200;53.394;10.414;2023-03-19T08:21:16;22.92;;;13.30;;
39518;SDS011;25200;53.394;10.414;2023-03-19T08:23:41;23.80;;;13.32;;
39518;SDS011;25200;53.394;10.414;2023-03-19T08:26:07;21.73;;;13.25;;
39518;SDS011;25200;53.394;10.414;2023-03-19T08:28:33;18.70;;;12.38;;
39518;SDS011;25200;53.394;10.414;2023-03-19T08:31:04;19.90;;;11.68;;
39518;SDS011;25200;53.394;10.414;2023-03-19T08:33:31;22.05;;;12.00;;
39518;SDS011;25200;53.394;10.414;2023-03-19T08:36:06;19.55;;;11.50;;
39518;SDS011;25200;53.394;10.414;2023-03-19T08:38:37;19.75;;;11.00;;
39518;SDS011;25200;53.394;10.414;2023-03-19T08:41:03;22.02;;;11.60;;
39518;SDS011;25200;53.394;10.414;2023-03-19T08:43:30;17.33;;;11.02;;
39518;SDS011;25200;53.394;10.414;2023-03-19T08:45:57;19.95;;;11.60;;
39518;SDS011;25200;53.394;10.414;2023-03-19T08:48:23;18.15;;;10.88;;
39518;SDS011;25200;53.394;10.414;2023-03-19T08:50:53;19.63;;;11.50;;
39518;SDS011;25200;53.394;10.414;2023-03-19T08:53:20;19.25;;;11.77;;
39518;SDS011;25200;53.394;10.414;2023-03-19T08:55:53;15.55;;;10.60;;
39518;SDS011;25200;53.394;10.414;2023-03-19T08:58:21;15.50;;;9.38;;
39518;SDS011;25200;53.394;10.414;2023-03-19T09:00:46;16.10;;;10.02;;
39518;SDS011;25200;53.394;10.414;2023-03-19T09:03:13;15.88;;;9.57;;
39518;SDS011;25200;53.394;10.414;2023-03-19T09:05:40;20.85;;;9.35;;
39518;SDS011;25200;53.394;10.414;2023-03-19T09:08:06;14.55;;;8.95;;
39518;SDS011;25200;53.394;10.414;2023-03-19T09:10:32;13.77;;;8.55;;
39518;SDS011;25200;53.394;10.414;2023-03-19T09:12:57;12.93;;;8.32;;
39518;SDS011;25200;53.394;10.414;2023-03-19T09:15:23;21.92;;;7.93;;
39518;SDS011;25200;53.394;10.414;2023-03-19T09:17:49;11.90;;;7.90;;
39518;SDS011;25200;53.394;10.414;2023-03-19T09:20:15;12.32;;;7.40;;
39518;SDS011;25200;53.394;10.414;2023-03-19T09:22:41;9.95;;;6.32;;
39518;SDS011;25200;53.394;10.414;2023-03-19T09:25:07;10.02;;;6.47;;
39518;SDS011;25200;53.394;10.414;2023-03-19T09:27:33;11.35;;;6.53;;
39518;SDS011;25200;53.394;10.414;2023-03-19T09:29:59;13.32;;;6.18;;
39518;SDS011;25200;53.394;10.414;2023-03-19T09:32:24;10.57;;;6.10;;
39518;SDS011;25200;53.394;10.414;2023-03-19T09:34:50;11.20;;;5.60;;
39518;SDS011;25200;53.394;10.414;2023-03-19T09:37:15;12.00;;;5.07;;
39518;SDS011;25200;53.394;10.414;2023-03-19T09:39:41;18.42;;;5.03;;
39518;SDS011;25200;53.394;10.414;2023-03-19T09:42:16;8.85;;;5.10;;
39518;SDS011;25200;53.394;10.414;2023-03-19T09:44:53;11.38;;;5.40;;
39518;SDS011;25200;53.394;10.414;2023-03-19T09:50:10;8.40;;;4.72;;
39518;SDS011;25200;53.394;10.414;2023-03-19T09:57:48;8.55;;;4.63;;
39518;SDS011;25200;53.394;10.414;2023-03-19T10:08:35;12.65;;;4.30;;
39518;SDS011;25200;53.394;10.414;2023-03-19T10:13:55;10.50;;;4.50;;
39518;SDS011;25200;53.394;10.414;2023-03-19T10:16:36;10.77;;;4.45;;
39518;SDS011;25200;53.394;10.414;2023-03-19T10:19:05;7.85;;;3.80;;
39518;SDS011;25200;53.394;10.414;2023-03-19T10:21:37;8.60;;;4.47;;
39518;SDS011;25200;53.394;10.414;2023-03-19T10:26:55;10.25;;;4.25;;
39518;SDS011;25200;53.394;10.414;2023-03-19T10:29:24;8.63;;;3.75;;
39518;SDS011;25200;53.394;10.414;2023-03-19T10:31:52;6.82;;;3.55;;
39518;SDS011;25200;53.394;10.414;2023-03-19T10:34:37;10.40;;;4.40;;
39518;SDS011;25200;53.394;10.414;2023-03-19T10:39:58;6.80;;;3.40;;
39518;SDS011;25200;53.394;10.414;2023-03-19T10:47:59;7.43;;;3.13;;
39518;SDS011;25200;53.394;10.414;2023-03-19T10:50:36;7.18;;;3.30;;
39518;SDS011;25200;53.394;10.414;2023-03-19T10:55:46;5.25;;;3.00;;
39518;SDS011;25200;53.394;10.414;2023-03-19T10:58:17;8.25;;;3.08;;
39518;SDS011;25200;53.394;10.414;2023-03-19T11:00:47;6.50;;;2.55;;
39518;SDS011;25200;53.394;10.414;2023-03-19T11:06:04;7.85;;;2.97;;
39518;SDS011;25200;53.394;10.414;2023-03-19T11:11:30;8.93;;;2.60;;
39518;SDS011;25200;53.394;10.414;2023-03-19T11:14:04;6.40;;;2.45;;
39518;SDS011;25200;53.394;10.414;2023-03-19T11:19:19;6.68;;;2.78;;
39518;SDS011;25200;53.394;10.414;2023-03-19T11:24:40;8.88;;;2.50;;
39518;SDS011;25200;53.394;10.414;2023-03-19T11:27:12;6.70;;;2.10;;
39518;SDS011;25200;53.394;10.414;2023-03-19T11:29:42;6.78;;;2.10;;
39518;SDS011;25200;53.394;10.414;2023-03-19T11:32:16;5.43;;;2.45;;
39518;SDS011;25200;53.394;10.414;2023-03-19T11:48:24;5.55;;;1.98;;
39518;SDS011;25200;53.394;10.414;2023-03-19T11:56:41;6.03;;;2.10;;
39518;SDS011;25200;53.394;10.414;2023-03-19T12:15:54;4.40;;;1.95;;
39518;SDS011;25200;53.394;10.414;2023-03-19T12:29:21;5.32;;;1.67;;
39518;SDS011;25200;53.394;10.414;2023-03-19T12:37:14;4.00;;;1.63;;
39518;SDS011;25200;53.394;10.414;2023-03-19T12:42:47;3.92;;;1.55;;
39518;SDS011;25200;53.394;10.414;2023-03-19T12:50:42;5.57;;;1.70;;
39518;SDS011;25200;53.394;10.414;2023-03-19T12:53:59;5.35;;;1.92;;
39518;SDS011;25200;53.394;10.414;2023-03-19T12:56:16;3.55;;;1.80;;
39518;SDS011;25200;53.394;10.414;2023-03-19T12:58:54;5.80;;;2.03;;
39518;SDS011;25200;53.394;10.414;2023-03-19T13:01:28;6.38;;;2.00;;
39518;SDS011;25200;53.394;10.414;2023-03-19T13:04:17;3.33;;;1.55;;
39518;SDS011;25200;53.394;10.414;2023-03-19T13:09:32;6.00;;;1.90;;
39518;SDS011;25200;53.394;10.414;2023-03-19T13:23:19;4.80;;;1.70;;
39518;SDS011;25200;53.394;10.414;2023-03-19T13:25:49;5.50;;;1.83;;
39518;SDS011;25200;53.394;10.414;2023-03-19T13:28:21;4.82;;;1.77;;
39518;SDS011;25200;53.394;10.414;2023-03-19T13:33:30;5.35;;;1.67;;
39518;SDS011;25200;53.394;10.414;2023-03-19T13:35:59;5.05;;;1.80;;
39518;SDS011;25200;53.394;10.414;2023-03-19T13:38:39;8.82;;;2.38;;
39518;SDS011;25200;53.394;10.414;2023-03-19T13:43:59;7.45;;;2.20;;
39518;SDS011;25200;53.394;10.414;2023-03-19T13:46:46;5.20;;;1.80;;
39518;SDS011;25200;53.394;10.414;2023-03-19T13:51:49;4.50;;;1.95;;
39518;SDS011;25200;53.394;10.414;2023-03-19T13:54:16;5.85;;;1.98;;
39518;SDS011;25200;53.394;10.414;2023-03-19T13:56:55;6.60;;;1.80;;
39518;SDS011;25200;53.394;10.414;2023-03-19T13:59:32;5.85;;;1.73;;
39518;SDS011;25200;53.394;10.414;2023-03-19T14:01:59;3.13;;;1.42;;
39518;SDS011;25200;53.394;10.414;2023-03-19T14:07:11;5.40;;;1.70;;
39518;SDS011;25200;53.394;10.414;2023-03-19T14:09:42;3.65;;;1.60;;
39518;SDS011;25200;53.394;10.414;2023-03-19T14:12:35;6.82;;;1.83;;
39518;SDS011;25200;53.394;10.414;2023-03-19T14:17:36;7.07;;;1.92;;
39518;SDS011;25200;53.394;10.414;2023-03-19T14:20:25;4.55;;;1.60;;
39518;SDS011;25200;53.394;10.414;2023-03-19T14:22:53;4.03;;;1.30;;
39518;SDS011;25200;53.394;10.414;2023-03-19T14:25:21;3.03;;;1.40;;
39518;SDS011;25200;53.394;10.414;2023-03-19T14:27:56;4.78;;;1.75;;
39518;SDS011;25200;53.394;10.414;2023-03-19T14:30:36;2.80;;;1.40;;
39518;SDS011;25200;53.394;10.414;2023-03-19T14:33:05;3.80;;;1.45;;
39518;SDS011;25200;53.394;10.414;2023-03-19T14:35:40;5.13;;;1.83;;
39518;SDS011;25200;53.394;10.414;2023-03-19T14:41:09;5.72;;;2.00;;
39518;SDS011;25200;53.394;10.414;2023-03-19T14:53:59;4.95;;;1.92;;
39518;SDS011;25200;53.394;10.414;2023-03-19T14:56:47;4.90;;;1.80;;
39518;SDS011;25200;53.394;10.414;2023-03-19T14:59:14;4.75;;;2.28;;
39518;SDS011;25200;53.394;10.414;2023-03-19T15:01:43;4.90;;;2.22;;
39518;SDS011;25200;53.394;10.414;2023-03-19T15:04:13;5.15;;;1.75;;
39518;SDS011;25200;53.394;10.414;2023-03-19T15:06:41;3.10;;;1.52;;
39518;SDS011;25200;53.394;10.414;2023-03-19T15:09:19;3.72;;;1.70;;
39518;SDS011;25200;53.394;10.414;2023-03-19T15:12:06;4.15;;;1.40;;
39518;SDS011;25200;53.394;10.414;2023-03-19T15:17:33;1.98;;;1.20;;
39518;SDS011;25200;53.394;10.414;2023-03-19T15:20:07;3.17;;;1.23;;
39518;SDS011;25200;53.394;10.414;2023-03-19T15:22:42;2.67;;;1.35;;
39518;SDS011;25200;53.394;10.414;2023-03-19T15:25:08;3.08;;;1.40;;
39518;SDS011;25200;53.394;10.414;2023-03-19T15:27:36;2.40;;;1.33;;
39518;SDS011;25200;53.394;10.414;2023-03-19T15:30:03;4.03;;;1.60;;
39518;SDS011;25200;53.394;10.414;2023-03-19T15:32:48;3.55;;;1.50;;
39518;SDS011;25200;53.394;10.414;2023-03-19T15:35:14;4.72;;;1.70;;
39518;SDS011;25200;53.394;10.414;2023-03-19T15:37:41;4.65;;;2.00;;
39518;SDS011;25200;53.394;10.414;2023-03-19T15:40:11;6.47;;;2.40;;
39518;SDS011;25200;53.394;10.414;2023-03-19T15:42:40;9.00;;;2.80;;
39518;SDS011;25200;53.394;10.414;2023-03-19T15:45:07;3.97;;;2.53;;
39518;SDS011;25200;53.394;10.414;2023-03-19T15:47:39;6.63;;;2.67;;
39518;SDS011;25200;53.394;10.414;2023-03-19T15:50:16;6.78;;;3.03;;
39518;SDS011;25200;53.394;10.414;2023-03-19T15:52:53;6.32;;;3.30;;
39518;SDS011;25200;53.394;10.414;2023-03-19T15:55:26;5.47;;;3.05;;
39518;SDS011;25200;53.394;10.414;2023-03-19T15:57:55;6.18;;;3.22;;
39518;SDS011;25200;53.394;10.414;2023-03-19T16:00:26;6.00;;;3.25;;
39518;SDS011;25200;53.394;10.414;2023-03-19T16:02:52;8.18;;;3.20;;
39518;SDS011;25200;53.394;10.414;2023-03-19T16:05:24;6.25;;;3.33;;
39518;SDS011;25200;53.394;10.414;2023-03-19T16:07:57;5.10;;;2.97;;
39518;SDS011;25200;53.394;10.414;2023-03-19T16:12:53;4.75;;;2.95;;
39518;SDS011;25200;53.394;10.414;2023-03-19T16:17:45;5.85;;;3.20;;
39518;SDS011;25200;53.394;10.414;2023-03-19T16:20:13;6.43;;;3.25;;
39518;SDS011;25200;53.394;10.414;2023-03-19T16:22:40;4.85;;;2.78;;
39518;SDS011;25200;53.394;10.414;2023-03-19T16:25:16;7.03;;;3.38;;
39518;SDS011;25200;53.394;10.414;2023-03-19T16:27:43;7.72;;;3.70;;
39518;SDS011;25200;53.394;10.414;2023-03-19T16:30:23;6.88;;;4.03;;
39518;SDS011;25200;53.394;10.414;2023-03-19T16:33:00;6.68;;;3.70;;
39518;SDS011;25200;53.394;10.414;2023-03-19T16:35:28;5.82;;;3.72;;
39518;SDS011;25200;53.394;10.414;2023-03-19T16:40:41;7.93;;;4.30;;
39518;SDS011;25200;53.394;10.414;2023-03-19T16:43:14;8.93;;;4.18;;
39518;SDS011;25200;53.394;10.414;2023-03-19T16:45:41;7.17;;;4.37;;
39518;SDS011;25200;53.394;10.414;2023-03-19T16:48:07;7.97;;;4.68;;
39518;SDS011;25200;53.394;10.414;2023-03-19T16:50:39;11.68;;;4.60;;
39518;SDS011;25200;53.394;10.414;2023-03-19T16:53:19;7.97;;;4.60;;
39518;SDS011;25200;53.394;10.414;2023-03-19T16:55:54;7.60;;;4.45;;
39518;SDS011;25200;53.394;10.414;2023-03-19T16:58:34;7.95;;;4.32;;
39518;SDS011;25200;53.394;10.414;2023-03-19T17:01:03;8.52;;;5.07;;
39518;SDS011;25200;53.394;10.414;2023-03-19T17:03:35;11.20;;;4.95;;
39518;SDS011;25200;53.394;10.414;2023-03-19T17:06:01;8.98;;;4.72;;
39518;SDS011;25200;53.394;10.414;2023-03-19T17:08:26;8.27;;;5.28;;
39518;SDS011;25200;53.394;10.414;2023-03-19T17:10:52;7.35;;;4.72;;